sensor_id;sensor_type;location;lat;lon;timestamp;P1;durP1;ratioP1;P2;durP2;ratioP2
14116;SDS011;7137;51.436;6.544;2023-01-28T00:02:52;5.87;;;5.07;;
14116;SDS011;7137;51.436;6.544;2023-01-28T00:06:00;6.43;;;5.00;;
14116;SDS011;7137;51.436;6.544;2023-01-28T00:09:02;5.70;;;4.93;;
14116;SDS011;7137;51.436;6.544;2023-01-28T00:12:04;6.23;;;5.33;;
14116;SDS011;7137;51.436;6.544;2023-01-28T00:15:06;6.33;;;5.07;;
14116;SDS011;7137;51.436;6.544;2023-01-28T00:18:09;6.63;;;5.37;;
14116;SDS011;7137;51.436;6.544;2023-01-28T00:21:12;7.43;;;5.63;;
14116;SDS011;7137;51.436;6.544;2023-01-28T00:24:15;6.47;;;5.47;;
14116;SDS011;7137;51.436;6.544;2023-01-28T00:27:16;6.80;;;5.60;;
14116;SDS011;7137;51.436;6.544;2023-01-28T00:30:18;6.67;;;5.50;;
14116;SDS011;7137;51.436;6.544;2023-01-28T00:33:19;7.60;;;5.27;;
14116;SDS011;7137;51.436;6.544;2023-01-28T00:36:23;6.43;;;5.43;;
14116;SDS011;7137;51.436;6.544;2023-01-28T00:39:26;7.40;;;5.60;;
14116;SDS011;7137;51.436;6.544;2023-01-28T00:42:27;7.73;;;5.50;;
14116;SDS011;7137;51.436;6.544;2023-01-28T00:45:29;7.03;;;5.80;;
14116;SDS011;7137;51.436;6.544;2023-01-28T00:48:30;7.00;;;5.67;;
14116;SDS011;7137;51.436;6.544;2023-01-28T00:51:33;6.57;;;5.33;;
14116;SDS011;7137;51.436;6.544;2023-01-28T00:54:35;7.50;;;5.90;;
14116;SDS011;7137;51.436;6.544;2023-01-28T00:57:36;7.77;;;6.30;;
14116;SDS011;7137;51.436;6.544;2023-01-28T01:00:38;7.43;;;6.30;;
14116;SDS011;7137;51.436;6.544;2023-01-28T01:03:40;8.00;;;6.10;;
14116;SDS011;7137;51.436;6.544;2023-01-28T01:06:43;7.37;;;5.97;;
14116;SDS011;7137;51.436;6.544;2023-01-28T01:09:44;7.57;;;5.93;;
14116;SDS011;7137;51.436;6.544;2023-01-28T01:12:46;7.33;;;6.10;;
14116;SDS011;7137;51.436;6.544;2023-01-28T01:15:48;7.37;;;5.93;;
14116;SDS011;7137;51.436;6.544;2023-01-28T01:18:50;7.47;;;6.30;;
14116;SDS011;7137;51.436;6.544;2023-01-28T01:21:54;6.80;;;6.10;;
14116;SDS011;7137;51.436;6.544;2023-01-28T01:24:57;7.17;;;6.43;;
14116;SDS011;7137;51.436;6.544;2023-01-28T01:27:58;6.77;;;5.93;;
14116;SDS011;7137;51.436;6.544;2023-01-28T01:31:00;6.80;;;6.10;;
14116;SDS011;7137;51.436;6.544;2023-01-28T01:34:02;7.73;;;6.30;;
14116;SDS011;7137;51.436;6.544;2023-01-28T01:37:05;7.47;;;5.90;;
14116;SDS011;7137;51.436;6.544;2023-01-28T01:40:09;7.43;;;6.30;;
14116;SDS011;7137;51.436;6.544;2023-01-28T01:43:14;6.93;;;6.23;;
14116;SDS011;7137;51.436;6.544;2023-01-28T01:46:17;7.77;;;6.70;;
14116;SDS011;7137;51.436;6.544;2023-01-28T01:49:23;7.10;;;6.30;;
14116;SDS011;7137;51.436;6.544;2023-01-28T01:52:29;7.77;;;6.50;;
14116;SDS011;7137;51.436;6.544;2023-01-28T01:55:34;7.57;;;6.37;;
14116;SDS011;7137;51.436;6.544;2023-01-28T01:58:38;7.67;;;6.87;;
14116;SDS011;7137;51.436;6.544;2023-01-28T02:01:44;8.93;;;6.83;;
14116;SDS011;7137;51.436;6.544;2023-01-28T02:04:46;7.20;;;5.60;;
14116;SDS011;7137;51.436;6.544;2023-01-28T02:07:49;8.47;;;7.50;;
14116;SDS011;7137;51.436;6.544;2023-01-28T02:11:15;8.20;;;7.10;;
14116;SDS011;7137;51.436;6.544;2023-01-28T02:18:13;7.70;;;6.90;;
14116;SDS011;7137;51.436;6.544;2023-01-28T02:21:25;8.70;;;7.80;;
14116;SDS011;7137;51.436;6.544;2023-01-28T02:31:32;8.63;;;7.70;;
14116;SDS011;7137;51.436;6.544;2023-01-28T02:34:39;9.50;;;8.50;;
14116;SDS011;7137;51.436;6.544;2023-01-28T02:37:48;8.77;;;7.87;;
14116;SDS011;7137;51.436;6.544;2023-01-28T02:40:56;11.40;;;8.27;;
14116;SDS011;7137;51.436;6.544;2023-01-28T02:44:06;8.90;;;7.90;;
14116;SDS011;7137;51.436;6.544;2023-01-28T02:47:09;8.77;;;7.87;;
14116;SDS011;7137;51.436;6.544;2023-01-28T02:50:31;9.80;;;8.50;;
14116;SDS011;7137;51.436;6.544;2023-01-28T02:53:43;10.23;;;8.17;;
14116;SDS011;7137;51.436;6.544;2023-01-28T02:56:52;8.70;;;7.80;;
14116;SDS011;7137;51.436;6.544;2023-01-28T03:00:09;9.10;;;7.97;;
14116;SDS011;7137;51.436;6.544;2023-01-28T03:03:18;8.53;;;7.63;;
14116;SDS011;7137;51.436;6.544;2023-01-28T03:06:27;8.10;;;7.30;;
14116;SDS011;7137;51.436;6.544;2023-01-28T03:09:34;8.90;;;7.57;;
14116;SDS011;7137;51.436;6.544;2023-01-28T03:12:38;8.93;;;7.43;;
14116;SDS011;7137;51.436;6.544;2023-01-28T03:16:00;7.80;;;6.87;;
14116;SDS011;7137;51.436;6.544;2023-01-28T03:19:19;8.10;;;7.10;;
14116;SDS011;7137;51.436;6.544;2023-01-28T03:22:41;9.30;;;7.27;;
14116;SDS011;7137;51.436;6.544;2023-01-28T03:26:04;7.40;;;6.60;;
14116;SDS011;7137;51.436;6.544;2023-01-28T03:29:26;8.83;;;6.90;;
14116;SDS011;7137;51.436;6.544;2023-01-28T03:32:50;8.30;;;7.50;;
14116;SDS011;7137;51.436;6.544;2023-01-28T03:36:11;8.97;;;7.40;;
14116;SDS011;7137;51.436;6.544;2023-01-28T03:39:30;10.00;;;7.70;;
14116;SDS011;7137;51.436;6.544;2023-01-28T03:42:31;9.73;;;8.43;;
14116;SDS011;7137;51.436;6.544;2023-01-28T03:45:33;8.07;;;7.27;;
14116;SDS011;7137;51.436;6.544;2023-01-28T03:48:37;10.10;;;8.23;;
14116;SDS011;7137;51.436;6.544;2023-01-28T03:51:39;10.50;;;8.37;;
14116;SDS011;7137;51.436;6.544;2023-01-28T03:54:41;10.93;;;8.47;;
14116;SDS011;7137;51.436;6.544;2023-01-28T03:57:43;9.10;;;7.73;;
14116;SDS011;7137;51.436;6.544;2023-01-28T04:00:45;8.90;;;7.77;;
14116;SDS011;7137;51.436;6.544;2023-01-28T04:03:48;11.73;;;9.37;;
14116;SDS011;7137;51.436;6.544;2023-01-28T04:06:50;12.33;;;10.33;;
14116;SDS011;7137;51.436;6.544;2023-01-28T04:09:52;11.97;;;10.20;;
14116;SDS011;7137;51.436;6.544;2023-01-28T04:12:54;12.17;;;10.87;;
14116;SDS011;7137;51.436;6.544;2023-01-28T04:15:55;12.03;;;10.40;;
14116;SDS011;7137;51.436;6.544;2023-01-28T04:18:58;11.57;;;10.30;;
14116;SDS011;7137;51.436;6.544;2023-01-28T04:22:00;10.30;;;9.00;;
14116;SDS011;7137;51.436;6.544;2023-01-28T04:25:01;10.70;;;9.20;;
14116;SDS011;7137;51.436;6.544;2023-01-28T04:28:03;10.27;;;8.80;;
14116;SDS011;7137;51.436;6.544;2023-01-28T04:31:05;11.00;;;9.40;;
14116;SDS011;7137;51.436;6.544;2023-01-28T04:34:08;11.23;;;9.43;;
14116;SDS011;7137;51.436;6.544;2023-01-28T04:37:09;11.87;;;9.83;;
14116;SDS011;7137;51.436;6.544;2023-01-28T04:40:11;11.20;;;9.63;;
14116;SDS011;7137;51.436;6.544;2023-01-28T04:43:13;12.57;;;10.60;;
14116;SDS011;7137;51.436;6.544;2023-01-28T04:46:14;14.60;;;11.37;;
14116;SDS011;7137;51.436;6.544;2023-01-28T04:49:18;13.47;;;11.63;;
14116;SDS011;7137;51.436;6.544;2023-01-28T04:52:20;14.50;;;11.40;;
14116;SDS011;7137;51.436;6.544;2023-01-28T04:55:21;13.27;;;11.03;;
14116;SDS011;7137;51.436;6.544;2023-01-28T04:58:23;13.97;;;11.77;;
14116;SDS011;7137;51.436;6.544;2023-01-28T05:01:24;13.10;;;11.43;;
14116;SDS011;7137;51.436;6.544;2023-01-28T05:04:27;13.13;;;11.03;;
14116;SDS011;7137;51.436;6.544;2023-01-28T05:07:29;12.47;;;10.43;;
14116;SDS011;7137;51.436;6.544;2023-01-28T05:10:30;13.33;;;11.10;;
14116;SDS011;7137;51.436;6.544;2023-01-28T05:13:32;15.67;;;11.13;;
14116;SDS011;7137;51.436;6.544;2023-01-28T05:16:33;13.37;;;10.93;;
14116;SDS011;7137;51.436;6.544;2023-01-28T05:19:37;15.13;;;12.00;;
14116;SDS011;7137;51.436;6.544;2023-01-28T05:22:38;14.63;;;11.57;;
14116;SDS011;7137;51.436;6.544;2023-01-28T05:25:40;13.53;;;11.40;;
14116;SDS011;7137;51.436;6.544;2023-01-28T05:28:42;15.37;;;12.07;;
14116;SDS011;7137;51.436;6.544;2023-01-28T05:31:43;15.43;;;11.37;;
14116;SDS011;7137;51.436;6.544;2023-01-28T05:34:46;14.93;;;12.33;;
14116;SDS011;7137;51.436;6.544;2023-01-28T05:37:47;14.97;;;13.03;;
14116;SDS011;7137;51.436;6.544;2023-01-28T05:40:49;15.97;;;13.53;;
14116;SDS011;7137;51.436;6.544;2023-01-28T05:43:51;15.20;;;11.97;;
14116;SDS011;7137;51.436;6.544;2023-01-28T05:46:52;14.50;;;12.37;;
14116;SDS011;7137;51.436;6.544;2023-01-28T05:49:55;15.07;;;12.37;;
14116;SDS011;7137;51.436;6.544;2023-01-28T05:52:57;15.77;;;13.07;;
14116;SDS011;7137;51.436;6.544;2023-01-28T05:55:58;16.20;;;13.80;;
14116;SDS011;7137;51.436;6.544;2023-01-28T05:59:00;17.23;;;13.90;;
14116;SDS011;7137;51.436;6.544;2023-01-28T06:02:01;16.37;;;13.00;;
14116;SDS011;7137;51.436;6.544;2023-01-28T06:05:05;16.83;;;14.07;;
14116;SDS011;7137;51.436;6.544;2023-01-28T06:08:07;17.13;;;13.83;;
14116;SDS011;7137;51.436;6.544;2023-01-28T06:11:09;19.03;;;14.80;;
14116;SDS011;7137;51.436;6.544;2023-01-28T06:14:10;17.10;;;13.83;;
14116;SDS011;7137;51.436;6.544;2023-01-28T06:17:12;18.10;;;13.80;;
14116;SDS011;7137;51.436;6.544;2023-01-28T06:20:15;18.10;;;13.47;;
14116;SDS011;7137;51.436;6.544;2023-01-28T06:23:18;17.47;;;13.73;;
14116;SDS011;7137;51.436;6.544;2023-01-28T06:26:19;17.77;;;14.73;;
14116;SDS011;7137;51.436;6.544;2023-01-28T06:29:22;16.97;;;13.60;;
14116;SDS011;7137;51.436;6.544;2023-01-28T06:32:23;18.47;;;14.73;;
14116;SDS011;7137;51.436;6.544;2023-01-28T06:35:27;16.73;;;13.73;;
14116;SDS011;7137;51.436;6.544;2023-01-28T06:38:29;18.27;;;14.93;;
14116;SDS011;7137;51.436;6.544;2023-01-28T06:41:31;17.73;;;14.17;;
14116;SDS011;7137;51.436;6.544;2023-01-28T06:44:32;16.40;;;13.83;;
14116;SDS011;7137;51.436;6.544;2023-01-28T06:47:34;17.97;;;14.70;;
14116;SDS011;7137;51.436;6.544;2023-01-28T06:50:37;17.10;;;13.90;;
14116;SDS011;7137;51.436;6.544;2023-01-28T06:53:38;18.67;;;14.53;;
14116;SDS011;7137;51.436;6.544;2023-01-28T06:56:40;17.60;;;14.43;;
14116;SDS011;7137;51.436;6.544;2023-01-28T06:59:43;18.17;;;15.20;;
14116;SDS011;7137;51.436;6.544;2023-01-28T07:02:45;17.47;;;15.20;;
14116;SDS011;7137;51.436;6.544;2023-01-28T07:05:47;18.60;;;15.00;;
14116;SDS011;7137;51.436;6.544;2023-01-28T07:08:49;19.57;;;15.40;;
14116;SDS011;7137;51.436;6.544;2023-01-28T07:11:50;18.57;;;15.43;;
14116;SDS011;7137;51.436;6.544;2023-01-28T07:14:52;19.50;;;15.87;;
14116;SDS011;7137;51.436;6.544;2023-01-28T07:17:54;20.03;;;15.33;;
14116;SDS011;7137;51.436;6.544;2023-01-28T07:20:56;18.50;;;15.83;;
14116;SDS011;7137;51.436;6.544;2023-01-28T07:23:58;19.40;;;15.47;;
14116;SDS011;7137;51.436;6.544;2023-01-28T07:27:00;18.70;;;16.13;;
14116;SDS011;7137;51.436;6.544;2023-01-28T07:30:01;20.07;;;15.67;;
14116;SDS011;7137;51.436;6.544;2023-01-28T07:33:03;19.60;;;16.00;;
14116;SDS011;7137;51.436;6.544;2023-01-28T07:36:07;19.77;;;15.93;;
14116;SDS011;7137;51.436;6.544;2023-01-28T07:39:08;21.87;;;17.50;;
14116;SDS011;7137;51.436;6.544;2023-01-28T07:42:10;21.60;;;17.43;;
14116;SDS011;7137;51.436;6.544;2023-01-28T07:45:12;21.53;;;16.87;;
14116;SDS011;7137;51.436;6.544;2023-01-28T07:48:14;20.90;;;16.80;;
14116;SDS011;7137;51.436;6.544;2023-01-28T07:51:17;22.13;;;18.10;;
14116;SDS011;7137;51.436;6.544;2023-01-28T07:54:19;21.83;;;17.17;;
14116;SDS011;7137;51.436;6.544;2023-01-28T07:57:20;22.17;;;17.20;;
14116;SDS011;7137;51.436;6.544;2023-01-28T08:00:23;20.87;;;17.17;;
14116;SDS011;7137;51.436;6.544;2023-01-28T08:03:26;20.97;;;16.57;;
14116;SDS011;7137;51.436;6.544;2023-01-28T08:06:30;19.77;;;16.37;;
14116;SDS011;7137;51.436;6.544;2023-01-28T08:09:37;20.20;;;15.87;;
14116;SDS011;7137;51.436;6.544;2023-01-28T08:12:38;20.20;;;16.67;;
14116;SDS011;7137;51.436;6.544;2023-01-28T08:15:40;19.43;;;16.17;;
14116;SDS011;7137;51.436;6.544;2023-01-28T08:18:42;19.60;;;16.30;;
14116;SDS011;7137;51.436;6.544;2023-01-28T08:21:45;23.57;;;16.93;;
14116;SDS011;7137;51.436;6.544;2023-01-28T08:24:47;20.10;;;16.33;;
14116;SDS011;7137;51.436;6.544;2023-01-28T08:27:48;20.83;;;16.57;;
14116;SDS011;7137;51.436;6.544;2023-01-28T08:30:51;19.43;;;15.90;;
14116;SDS011;7137;51.436;6.544;2023-01-28T08:33:53;20.20;;;15.80;;
14116;SDS011;7137;51.436;6.544;2023-01-28T08:36:56;22.43;;;17.27;;
14116;SDS011;7137;51.436;6.544;2023-01-28T08:39:57;21.43;;;16.50;;
14116;SDS011;7137;51.436;6.544;2023-01-28T08:42:59;21.40;;;17.17;;
14116;SDS011;7137;51.436;6.544;2023-01-28T08:46:00;26.53;;;19.30;;
14116;SDS011;7137;51.436;6.544;2023-01-28T08:49:04;22.97;;;17.60;;
14116;SDS011;7137;51.436;6.544;2023-01-28T08:52:07;23.53;;;18.47;;
14116;SDS011;7137;51.436;6.544;2023-01-28T08:55:10;22.43;;;17.23;;
14116;SDS011;7137;51.436;6.544;2023-01-28T08:58:12;21.47;;;16.83;;
14116;SDS011;7137;51.436;6.544;2023-01-28T09:01:14;23.13;;;17.73;;
14116;SDS011;7137;51.436;6.544;2023-01-28T09:04:16;22.10;;;17.67;;
14116;SDS011;7137;51.436;6.544;2023-01-28T09:07:19;22.37;;;17.63;;
14116;SDS011;7137;51.436;6.544;2023-01-28T09:10:20;22.67;;;17.50;;
14116;SDS011;7137;51.436;6.544;2023-01-28T09:13:22;24.83;;;19.73;;
14116;SDS011;7137;51.436;6.544;2023-01-28T09:16:24;25.17;;;19.93;;
14116;SDS011;7137;51.436;6.544;2023-01-28T09:19:26;26.03;;;19.03;;
14116;SDS011;7137;51.436;6.544;2023-01-28T09:22:30;23.70;;;18.70;;
14116;SDS011;7137;51.436;6.544;2023-01-28T09:25:33;22.50;;;18.13;;
14116;SDS011;7137;51.436;6.544;2023-01-28T09:28:35;24.20;;;19.30;;
14116;SDS011;7137;51.436;6.544;2023-01-28T09:31:37;26.63;;;19.43;;
14116;SDS011;7137;51.436;6.544;2023-01-28T09:34:40;21.77;;;17.40;;
14116;SDS011;7137;51.436;6.544;2023-01-28T09:37:44;22.23;;;18.03;;
14116;SDS011;7137;51.436;6.544;2023-01-28T09:40:46;24.57;;;19.07;;
14116;SDS011;7137;51.436;6.544;2023-01-28T09:44:12;24.67;;;19.33;;
14116;SDS011;7137;51.436;6.544;2023-01-28T09:47:26;24.40;;;18.93;;
14116;SDS011;7137;51.436;6.544;2023-01-28T09:50:33;25.73;;;19.73;;
14116;SDS011;7137;51.436;6.544;2023-01-28T09:53:39;22.80;;;18.07;;
14116;SDS011;7137;51.436;6.544;2023-01-28T09:56:45;22.53;;;17.67;;
14116;SDS011;7137;51.436;6.544;2023-01-28T09:59:51;23.20;;;18.70;;
14116;SDS011;7137;51.436;6.544;2023-01-28T10:02:57;23.87;;;18.77;;
14116;SDS011;7137;51.436;6.544;2023-01-28T10:06:15;19.87;;;16.03;;
14116;SDS011;7137;51.436;6.544;2023-01-28T10:09:29;20.53;;;16.90;;
14116;SDS011;7137;51.436;6.544;2023-01-28T10:12:38;18.37;;;15.67;;
14116;SDS011;7137;51.436;6.544;2023-01-28T10:15:52;20.13;;;16.00;;
14116;SDS011;7137;51.436;6.544;2023-01-28T10:19:01;23.40;;;19.07;;
14116;SDS011;7137;51.436;6.544;2023-01-28T10:22:08;24.93;;;19.33;;
14116;SDS011;7137;51.436;6.544;2023-01-28T10:25:18;23.17;;;18.77;;
14116;SDS011;7137;51.436;6.544;2023-01-28T10:28:22;25.27;;;20.00;;
14116;SDS011;7137;51.436;6.544;2023-01-28T10:31:29;24.30;;;19.93;;
14116;SDS011;7137;51.436;6.544;2023-01-28T10:34:35;23.07;;;17.73;;
14116;SDS011;7137;51.436;6.544;2023-01-28T10:37:37;22.13;;;17.97;;
14116;SDS011;7137;51.436;6.544;2023-01-28T10:40:41;24.37;;;18.47;;
14116;SDS011;7137;51.436;6.544;2023-01-28T10:43:46;23.10;;;18.17;;
14116;SDS011;7137;51.436;6.544;2023-01-28T10:46:50;23.83;;;18.90;;
14116;SDS011;7137;51.436;6.544;2023-01-28T10:49:55;20.53;;;17.10;;
14116;SDS011;7137;51.436;6.544;2023-01-28T10:53:00;20.47;;;16.97;;
14116;SDS011;7137;51.436;6.544;2023-01-28T10:56:04;20.60;;;16.73;;
14116;SDS011;7137;51.436;6.544;2023-01-28T10:59:17;20.87;;;16.67;;
14116;SDS011;7137;51.436;6.544;2023-01-28T11:02:28;22.90;;;17.67;;
14116;SDS011;7137;51.436;6.544;2023-01-28T11:05:31;20.77;;;17.20;;
14116;SDS011;7137;51.436;6.544;2023-01-28T11:08:41;24.80;;;18.90;;
14116;SDS011;7137;51.436;6.544;2023-01-28T11:11:45;20.87;;;16.97;;
14116;SDS011;7137;51.436;6.544;2023-01-28T11:14:50;23.37;;;17.50;;
14116;SDS011;7137;51.436;6.544;2023-01-28T11:17:54;23.03;;;18.57;;
14116;SDS011;7137;51.436;6.544;2023-01-28T11:20:59;22.53;;;18.17;;
14116;SDS011;7137;51.436;6.544;2023-01-28T11:24:03;21.53;;;17.70;;
14116;SDS011;7137;51.436;6.544;2023-01-28T11:27:10;23.93;;;18.37;;
14116;SDS011;7137;51.436;6.544;2023-01-28T11:30:19;21.80;;;18.97;;
14116;SDS011;7137;51.436;6.544;2023-01-28T11:33:24;22.07;;;18.33;;
14116;SDS011;7137;51.436;6.544;2023-01-28T11:36:31;20.27;;;17.33;;
14116;SDS011;7137;51.436;6.544;2023-01-28T11:39:34;20.20;;;16.93;;
14116;SDS011;7137;51.436;6.544;2023-01-28T11:42:37;22.50;;;17.53;;
14116;SDS011;7137;51.436;6.544;2023-01-28T11:45:41;22.97;;;17.97;;
14116;SDS011;7137;51.436;6.544;2023-01-28T11:48:50;21.80;;;17.73;;
14116;SDS011;7137;51.436;6.544;2023-01-28T11:51:59;20.50;;;17.53;;
14116;SDS011;7137;51.436;6.544;2023-01-28T11:55:10;21.37;;;17.27;;
14116;SDS011;7137;51.436;6.544;2023-01-28T11:58:25;19.87;;;15.93;;
14116;SDS011;7137;51.436;6.544;2023-01-28T12:01:37;21.13;;;16.97;;
14116;SDS011;7137;51.436;6.544;2023-01-28T12:04:51;19.30;;;17.10;;
14116;SDS011;7137;51.436;6.544;2023-01-28T12:08:05;21.57;;;17.63;;
14116;SDS011;7137;51.436;6.544;2023-01-28T12:11:21;20.90;;;17.50;;
14116;SDS011;7137;51.436;6.544;2023-01-28T12:18:19;19.00;;;16.47;;
14116;SDS011;7137;51.436;6.544;2023-01-28T12:21:34;18.90;;;15.60;;
14116;SDS011;7137;51.436;6.544;2023-01-28T12:24:51;18.60;;;15.53;;
14116;SDS011;7137;51.436;6.544;2023-01-28T12:28:02;19.37;;;16.73;;
14116;SDS011;7137;51.436;6.544;2023-01-28T12:31:25;19.47;;;16.57;;
14116;SDS011;7137;51.436;6.544;2023-01-28T12:38:20;19.00;;;16.23;;
14116;SDS011;7137;51.436;6.544;2023-01-28T12:41:29;19.17;;;16.20;;
14116;SDS011;7137;51.436;6.544;2023-01-28T12:44:33;20.27;;;17.00;;
14116;SDS011;7137;51.436;6.544;2023-01-28T12:47:41;19.43;;;17.07;;
14116;SDS011;7137;51.436;6.544;2023-01-28T12:50:50;21.33;;;17.77;;
14116;SDS011;7137;51.436;6.544;2023-01-28T12:53:58;20.60;;;17.73;;
14116;SDS011;7137;51.436;6.544;2023-01-28T12:57:04;22.30;;;19.93;;
14116;SDS011;7137;51.436;6.544;2023-01-28T13:00:20;22.70;;;19.93;;
14116;SDS011;7137;51.436;6.544;2023-01-28T13:03:27;22.77;;;19.87;;
14116;SDS011;7137;51.436;6.544;2023-01-28T13:06:37;20.67;;;18.37;;
14116;SDS011;7137;51.436;6.544;2023-01-28T13:09:48;22.37;;;18.63;;
14116;SDS011;7137;51.436;6.544;2023-01-28T13:12:54;22.07;;;19.17;;
14116;SDS011;7137;51.436;6.544;2023-01-28T13:15:58;20.90;;;18.67;;
14116;SDS011;7137;51.436;6.544;2023-01-28T13:19:05;27.60;;;22.07;;
14116;SDS011;7137;51.436;6.544;2023-01-28T13:22:10;28.83;;;23.80;;
14116;SDS011;7137;51.436;6.544;2023-01-28T13:25:22;27.83;;;23.47;;
14116;SDS011;7137;51.436;6.544;2023-01-28T13:28:28;29.03;;;24.53;;
14116;SDS011;7137;51.436;6.544;2023-01-28T13:31:35;26.87;;;23.13;;
14116;SDS011;7137;51.436;6.544;2023-01-28T13:34:40;27.43;;;23.17;;
14116;SDS011;7137;51.436;6.544;2023-01-28T13:37:43;24.67;;;21.07;;
14116;SDS011;7137;51.436;6.544;2023-01-28T13:40:54;22.13;;;19.40;;
14116;SDS011;7137;51.436;6.544;2023-01-28T13:43:59;25.80;;;20.73;;
14116;SDS011;7137;51.436;6.544;2023-01-28T13:47:11;26.17;;;21.07;;
14116;SDS011;7137;51.436;6.544;2023-01-28T13:50:17;23.67;;;20.20;;
14116;SDS011;7137;51.436;6.544;2023-01-28T13:53:23;23.00;;;18.97;;
14116;SDS011;7137;51.436;6.544;2023-01-28T13:56:38;23.37;;;18.83;;
14116;SDS011;7137;51.436;6.544;2023-01-28T13:59:52;24.53;;;19.47;;
14116;SDS011;7137;51.436;6.544;2023-01-28T14:06:45;23.47;;;18.87;;
14116;SDS011;7137;51.436;6.544;2023-01-28T14:10:07;22.07;;;18.60;;
14116;SDS011;7137;51.436;6.544;2023-01-28T14:13:22;22.10;;;18.93;;
14116;SDS011;7137;51.436;6.544;2023-01-28T14:16:44;22.93;;;19.57;;
14116;SDS011;7137;51.436;6.544;2023-01-28T14:19:51;23.47;;;20.50;;
14116;SDS011;7137;51.436;6.544;2023-01-28T14:22:56;24.13;;;20.27;;
14116;SDS011;7137;51.436;6.544;2023-01-28T14:26:08;22.63;;;18.77;;
14116;SDS011;7137;51.436;6.544;2023-01-28T14:29:22;23.37;;;19.73;;
14116;SDS011;7137;51.436;6.544;2023-01-28T14:32:35;23.83;;;20.23;;
14116;SDS011;7137;51.436;6.544;2023-01-28T14:35:37;23.10;;;19.87;;
14116;SDS011;7137;51.436;6.544;2023-01-28T14:38:43;24.83;;;19.80;;
14116;SDS011;7137;51.436;6.544;2023-01-28T14:41:47;23.77;;;20.63;;
14116;SDS011;7137;51.436;6.544;2023-01-28T14:44:53;23.83;;;20.43;;
14116;SDS011;7137;51.436;6.544;2023-01-28T14:55:23;28.47;;;23.57;;
14116;SDS011;7137;51.436;6.544;2023-01-28T14:58:34;29.93;;;23.50;;
14116;SDS011;7137;51.436;6.544;2023-01-28T15:01:43;28.53;;;24.60;;
14116;SDS011;7137;51.436;6.544;2023-01-28T15:04:45;27.33;;;23.23;;
14116;SDS011;7137;51.436;6.544;2023-01-28T15:07:47;31.50;;;26.20;;
14116;SDS011;7137;51.436;6.544;2023-01-28T15:10:50;29.90;;;24.37;;
14116;SDS011;7137;51.436;6.544;2023-01-28T15:13:54;29.40;;;25.33;;
14116;SDS011;7137;51.436;6.544;2023-01-28T15:16:59;28.63;;;24.13;;
14116;SDS011;7137;51.436;6.544;2023-01-28T15:20:01;29.77;;;25.17;;
14116;SDS011;7137;51.436;6.544;2023-01-28T15:23:05;28.70;;;23.80;;
14116;SDS011;7137;51.436;6.544;2023-01-28T15:26:09;27.60;;;24.03;;
14116;SDS011;7137;51.436;6.544;2023-01-28T15:29:25;31.13;;;25.00;;
14116;SDS011;7137;51.436;6.544;2023-01-28T15:32:32;30.27;;;25.50;;
14116;SDS011;7137;51.436;6.544;2023-01-28T15:35:34;28.93;;;23.30;;
14116;SDS011;7137;51.436;6.544;2023-01-28T15:38:36;27.63;;;22.63;;
14116;SDS011;7137;51.436;6.544;2023-01-28T15:41:38;27.47;;;21.60;;
14116;SDS011;7137;51.436;6.544;2023-01-28T15:44:43;25.77;;;20.43;;
14116;SDS011;7137;51.436;6.544;2023-01-28T15:47:48;26.57;;;22.27;;
14116;SDS011;7137;51.436;6.544;2023-01-28T15:50:56;27.33;;;21.60;;
14116;SDS011;7137;51.436;6.544;2023-01-28T15:54:00;24.70;;;20.57;;
14116;SDS011;7137;51.436;6.544;2023-01-28T15:57:09;25.73;;;22.00;;
14116;SDS011;7137;51.436;6.544;2023-01-28T16:00:17;25.90;;;21.67;;
14116;SDS011;7137;51.436;6.544;2023-01-28T16:03:21;26.43;;;21.27;;
14116;SDS011;7137;51.436;6.544;2023-01-28T16:06:27;30.13;;;24.93;;
14116;SDS011;7137;51.436;6.544;2023-01-28T16:09:32;27.03;;;21.90;;
14116;SDS011;7137;51.436;6.544;2023-01-28T16:12:35;24.93;;;21.27;;
14116;SDS011;7137;51.436;6.544;2023-01-28T16:15:36;26.67;;;20.83;;
14116;SDS011;7137;51.436;6.544;2023-01-28T16:18:42;26.67;;;21.80;;
14116;SDS011;7137;51.436;6.544;2023-01-28T16:21:49;28.57;;;23.93;;
14116;SDS011;7137;51.436;6.544;2023-01-28T16:24:51;31.43;;;25.13;;
14116;SDS011;7137;51.436;6.544;2023-01-28T16:27:54;25.40;;;21.40;;
14116;SDS011;7137;51.436;6.544;2023-01-28T16:30:56;25.03;;;19.93;;
14116;SDS011;7137;51.436;6.544;2023-01-28T16:33:59;24.43;;;19.40;;
14116;SDS011;7137;51.436;6.544;2023-01-28T16:37:01;24.53;;;20.10;;
14116;SDS011;7137;51.436;6.544;2023-01-28T16:40:03;24.83;;;20.97;;
14116;SDS011;7137;51.436;6.544;2023-01-28T16:43:07;26.30;;;21.37;;
14116;SDS011;7137;51.436;6.544;2023-01-28T16:46:10;26.30;;;21.30;;
14116;SDS011;7137;51.436;6.544;2023-01-28T16:49:13;27.57;;;22.10;;
14116;SDS011;7137;51.436;6.544;2023-01-28T16:52:15;27.23;;;21.47;;
14116;SDS011;7137;51.436;6.544;2023-01-28T16:55:18;28.13;;;22.83;;
14116;SDS011;7137;51.436;6.544;2023-01-28T16:58:21;27.10;;;22.20;;
14116;SDS011;7137;51.436;6.544;2023-01-28T17:01:25;28.57;;;23.37;;
14116;SDS011;7137;51.436;6.544;2023-01-28T17:04:29;26.90;;;22.07;;
14116;SDS011;7137;51.436;6.544;2023-01-28T17:07:30;32.37;;;23.80;;
14116;SDS011;7137;51.436;6.544;2023-01-28T17:10:32;31.30;;;24.60;;
14116;SDS011;7137;51.436;6.544;2023-01-28T17:13:34;28.97;;;23.63;;
14116;SDS011;7137;51.436;6.544;2023-01-28T17:16:35;29.00;;;23.27;;
14116;SDS011;7137;51.436;6.544;2023-01-28T17:19:38;29.60;;;23.00;;
14116;SDS011;7137;51.436;6.544;2023-01-28T17:22:39;31.63;;;22.77;;
14116;SDS011;7137;51.436;6.544;2023-01-28T17:25:41;29.07;;;22.43;;
14116;SDS011;7137;51.436;6.544;2023-01-28T17:28:43;28.97;;;21.57;;
14116;SDS011;7137;51.436;6.544;2023-01-28T17:31:45;27.47;;;21.77;;
14116;SDS011;7137;51.436;6.544;2023-01-28T17:34:47;28.03;;;22.83;;
14116;SDS011;7137;51.436;6.544;2023-01-28T17:37:51;26.03;;;21.03;;
14116;SDS011;7137;51.436;6.544;2023-01-28T17:40:53;28.00;;;21.57;;
14116;SDS011;7137;51.436;6.544;2023-01-28T17:43:54;32.07;;;24.80;;
14116;SDS011;7137;51.436;6.544;2023-01-28T17:46:56;29.67;;;22.80;;
14116;SDS011;7137;51.436;6.544;2023-01-28T17:49:59;28.77;;;21.73;;
14116;SDS011;7137;51.436;6.544;2023-01-28T17:53:01;32.43;;;23.87;;
14116;SDS011;7137;51.436;6.544;2023-01-28T17:56:04;30.57;;;23.67;;
14116;SDS011;7137;51.436;6.544;2023-01-28T17:59:07;27.67;;;22.47;;
14116;SDS011;7137;51.436;6.544;2023-01-28T18:02:10;30.50;;;22.87;;
14116;SDS011;7137;51.436;6.544;2023-01-28T18:05:14;27.83;;;22.73;;
14116;SDS011;7137;51.436;6.544;2023-01-28T18:08:16;30.23;;;23.30;;
14116;SDS011;7137;51.436;6.544;2023-01-28T18:11:18;29.87;;;23.60;;
14116;SDS011;7137;51.436;6.544;2023-01-28T18:14:20;29.53;;;23.50;;
14116;SDS011;7137;51.436;6.544;2023-01-28T18:17:21;29.13;;;23.63;;
14116;SDS011;7137;51.436;6.544;2023-01-28T18:20:27;29.47;;;22.27;;
14116;SDS011;7137;51.436;6.544;2023-01-28T18:23:29;28.83;;;21.97;;
14116;SDS011;7137;51.436;6.544;2023-01-28T18:26:31;29.87;;;23.77;;
14116;SDS011;7137;51.436;6.544;2023-01-28T18:29:33;30.60;;;23.97;;
14116;SDS011;7137;51.436;6.544;2023-01-28T18:32:35;29.73;;;22.83;;
14116;SDS011;7137;51.436;6.544;2023-01-28T18:35:41;30.07;;;23.07;;
14116;SDS011;7137;51.436;6.544;2023-01-28T18:38:43;31.83;;;23.57;;
14116;SDS011;7137;51.436;6.544;2023-01-28T18:41:44;30.87;;;24.10;;
14116;SDS011;7137;51.436;6.544;2023-01-28T18:44:46;31.20;;;24.50;;
14116;SDS011;7137;51.436;6.544;2023-01-28T18:47:48;30.57;;;23.77;;
14116;SDS011;7137;51.436;6.544;2023-01-28T18:50:51;31.50;;;23.77;;
14116;SDS011;7137;51.436;6.544;2023-01-28T18:53:55;36.03;;;26.47;;
14116;SDS011;7137;51.436;6.544;2023-01-28T18:56:57;56.67;;;37.93;;